Time;durP1;ratioP1;P1;durP2;ratioP2;P2;SDS_P1;SDS_P2;PMS_P1;PMS_P2;Temp;Humidity;BMP_temperature;BMP_pressure;BME280_temperature;BME280_humidity;BME280_pressure;Samples;Min_cycle;Max_cycle;Signal;HPM_P1;HPM_P2
2022/11/04 00:01:38;;;;;;;7.47;1.30;;;;;;;9.49;100.00;99859.16;4993585;28;20037;-51
2022/11/04 00:04:03;;;;;;;8.70;1.90;;;;;;;9.80;100.00;99927.03;4993476;28;20113;-53
2022/11/04 00:06:29;;;;;;;8.02;1.45;;;;;;;9.74;100.00;99908.88;4992335;28;20518;-54
2022/11/04 00:08:56;;;;;;;4.68;1.20;;;;;;;9.82;100.00;99917.28;4993499;28;20062;-54
2022/11/04 00:14:07;;;;;;;3.30;0.70;;;;;;;9.79;100.00;99930.56;4993215;28;20519;-51
2022/11/04 00:19:16;;;;;;;5.57;1.05;;;;;;;9.93;100.00;99939.56;4993183;28;20120;-52
2022/11/04 00:29:59;;;;;;;5.00;0.70;;;;;;;9.62;100.00;99947.06;4993106;28;20515;-53
2022/11/04 00:35:09;;;;;;;4.70;0.70;;;;;;;9.38;100.00;99943.69;4992929;28;20100;-56
2022/11/04 00:37:39;;;;;;;2.03;0.25;;;;;;;8.96;100.00;99888.53;4991805;28;20536;-50
2022/11/04 00:40:05;;;;;;;3.35;0.75;;;;;;;9.12;100.00;99937.78;5008161;28;20045;-48
2022/11/04 00:42:31;;;;;;;1.73;0.68;;;;;;;9.09;100.00;99953.66;5007973;28;20411;-56
2022/11/04 00:44:56;;;;;;;3.75;0.63;;;;;;;8.70;100.00;99893.97;4992799;28;20038;-50
2022/11/04 00:47:21;;;;;;;5.22;0.60;;;;;;;8.95;100.00;99946.34;5007959;28;20028;-52
2022/11/04 00:49:47;;;;;;;2.25;0.50;;;;;;;8.86;100.00;99965.09;4992734;28;20129;-49
2022/11/04 00:52:12;;;;;;;6.20;0.90;;;;;;;8.82;100.00;99958.22;4991645;28;20034;-53
2022/11/04 00:54:37;;;;;;;5.43;1.00;;;;;;;8.73;100.00;99956.81;4992907;28;20077;-53
2022/11/04 00:57:02;;;;;;;2.75;0.88;;;;;;;8.62;100.00;99968.66;5007550;28;20046;-51
2022/11/04 00:59:28;;;;;;;2.63;0.77;;;;;;;8.36;100.00;99925.91;4992773;28;20027;-53
2022/11/04 01:01:54;;;;;;;2.28;0.77;;;;;;;8.27;100.00;99935.84;4990911;28;20050;-50
2022/11/04 01:04:20;;;;;;;3.72;1.05;;;;;;;8.55;100.00;99968.03;4997025;28;20054;-54
2022/11/04 01:06:45;;;;;;;2.85;0.90;;;;;;;8.58;100.00;99967.91;4991742;28;20457;-51
2022/11/04 01:09:11;;;;;;;6.15;1.05;;;;;;;8.45;100.00;99945.69;4990298;28;20117;-55
2022/11/04 01:11:36;;;;;;;3.30;1.27;;;;;;;8.71;100.00;99984.91;4993018;28;20501;-52
2022/11/04 01:14:02;;;;;;;4.60;1.00;;;;;;;8.80;100.00;99992.41;4991393;28;20038;-55
2022/11/04 01:16:27;;;;;;;4.30;1.02;;;;;;;8.90;100.00;100003.44;4992496;28;20038;-52
2022/11/04 01:18:53;;;;;;;5.65;0.98;;;;;;;8.58;100.00;99932.97;4992664;28;20030;-56
2022/11/04 01:21:19;;;;;;;8.13;1.40;;;;;;;9.11;100.00;100013.06;4992502;28;20040;-50
2022/11/04 01:23:45;;;;;;;6.22;1.52;;;;;;;8.87;100.00;99954.50;4992510;28;20069;-54
2022/11/04 01:26:16;;;;;;;10.80;1.70;;;;;;;9.01;100.00;99946.97;4991431;28;20058;-50
2022/11/04 01:28:42;;;;;;;4.47;1.50;;;;;;;9.12;100.00;99948.28;4991160;28;20085;-53
2022/11/04 01:31:09;;;;;;;5.65;1.27;;;;;;;9.33;100.00;99964.03;4991454;28;20482;-53
2022/11/04 01:33:35;;;;;;;7.53;1.77;;;;;;;9.33;100.00;99961.41;4993517;28;20031;-57
2022/11/04 01:36:01;;;;;;;5.22;2.15;;;;;;;9.46;100.00;99981.00;4996218;28;20045;-54
2022/11/04 01:38:27;;;;;;;2.95;1.00;;;;;;;9.72;100.00;100029.81;4996335;28;20034;-50
2022/11/04 01:40:52;;;;;;;2.45;0.80;;;;;;;9.75;100.00;100027.06;4996261;28;20030;-53
2022/11/04 01:43:20;;;;;;;6.50;1.15;;;;;;;9.39;100.00;99971.66;4995018;28;20042;-54
2022/11/04 01:45:51;;;;;;;4.22;0.80;;;;;;;9.50;100.00;99990.47;4996433;28;20034;-50
2022/11/04 01:48:21;;;;;;;2.72;0.75;;;;;;;9.54;100.00;100010.41;4995979;28;20046;-51
2022/11/04 01:50:47;;;;;;;3.05;0.65;;;;;;;9.38;100.00;99982.22;4994702;28;20045;-51
2022/11/04 01:53:16;;;;;;;1.98;0.60;;;;;;;9.63;100.00;100027.59;4994930;28;20237;-56
2022/11/04 01:55:49;;;;;;;3.63;1.00;;;;;;;9.30;100.00;99979.06;4995990;28;20045;-51
2022/11/04 01:58:17;;;;;;;1.77;0.68;;;;;;;9.55;100.00;100032.28;4995557;28;20056;-49
2022/11/04 02:00:43;;;;;;;3.05;0.88;;;;;;;9.52;100.00;100032.41;4994708;28;20386;-51
2022/11/04 02:03:13;;;;;;;1.98;0.63;;;;;;;9.00;100.00;99975.88;4993554;28;20038;-49
2022/11/04 02:05:38;;;;;;;0.73;0.60;;;;;;;9.63;100.00;100053.03;4995639;28;20065;-53
2022/11/04 02:08:05;;;;;;;2.10;0.80;;;;;;;9.40;100.00;100025.03;4995695;28;20066;-52
2022/11/04 02:10:31;;;;;;;3.83;1.10;;;;;;;9.23;100.00;99988.94;4995805;28;20449;-55
2022/11/04 02:12:58;;;;;;;2.53;1.00;;;;;;;9.57;100.00;100052.31;4995553;28;20114;-52
2022/11/04 02:15:40;;;;;;;3.00;1.35;;;;;;;9.53;100.00;100044.66;4993952;28;20043;-52
2022/11/04 02:18:32;;;;;;;5.15;1.60;;;;;;;9.57;100.00;100054.97;4995662;28;20031;-58
2022/11/04 02:21:21;;;;;;;4.80;2.17;;;;;;;9.63;100.00;100069.66;4995195;28;20478;-55
2022/11/04 02:23:59;;;;;;;4.60;1.55;;;;;;;9.61;100.00;100081.97;4995371;28;20398;-52
2022/11/04 02:26:51;;;;;;;3.55;1.20;;;;;;;9.60;100.00;100086.38;4977987;28;20591;-52
2022/11/04 02:29:25;;;;;;;4.50;1.80;;;;;;;9.57;100.00;100093.53;4984899;28;20038;-53
2022/11/04 02:32:46;;;;;;;3.95;2.10;;;;;;;9.54;100.00;100088.41;4995288;28;20164;-52
2022/11/04 02:35:22;;;;;;;4.22;2.50;;;;;;;9.20;100.00;100024.97;4957217;28;20039;-54
2022/11/04 02:38:12;;;;;;;5.18;3.03;;;;;;;9.11;100.00;100013.06;4973344;28;20035;-53
2022/11/04 02:40:59;;;;;;;6.77;4.07;;;;;;;9.52;100.00;100083.19;4986265;28;20038;-56
2022/11/04 02:43:44;;;;;;;8.70;4.38;;;;;;;9.51;100.00;100091.16;5010220;28;20030;-56
2022/11/04 02:46:23;;;;;;;9.13;4.80;;;;;;;9.46;100.00;100067.69;5008943;28;20038;-52
2022/11/04 02:48:56;;;;;;;11.15;5.00;;;;;;;9.14;100.00;100014.72;5009980;28;20042;-51
2022/11/04 02:51:31;;;;;;;8.98;5.93;;;;;;;9.33;100.00;100050.72;4994596;28;20030;-55
2022/11/04 02:54:27;;;;;;;9.55;5.32;;;;;;;9.38;100.00;100061.88;4994553;28;20386;-55
2022/11/04 02:56:55;;;;;;;9.35;5.93;;;;;;;9.44;100.00;100077.41;5009146;28;20134;-54
2022/11/04 02:59:31;;;;;;;9.85;6.60;;;;;;;9.45;100.00;100078.25;4993422;28;20062;-54
2022/11/04 03:01:58;;;;;;;12.00;7.18;;;;;;;9.39;100.00;100068.00;4993509;28;20114;-52
2022/11/04 03:04:28;;;;;;;12.32;8.07;;;;;;;9.51;100.00;100084.13;4993371;28;20070;-48
2022/11/04 03:06:55;;;;;;;13.03;8.23;;;;;;;9.10;100.00;100019.25;4994599;28;20069;-48
2022/11/04 03:09:21;;;;;;;12.68;9.27;;;;;;;9.06;100.00;100009.78;5009658;28;20031;-50
2022/11/04 03:11:56;;;;;;;20.20;9.15;;;;;;;9.33;100.00;100073.50;4993112;28;20096;-50
2022/11/04 03:14:29;;;;;;;19.67;10.07;;;;;;;8.70;100.00;99970.06;4994607;28;20026;-51
2022/11/04 03:16:58;;;;;;;15.25;9.68;;;;;;;9.01;100.00;100030.09;4993241;28;20044;-48
2022/11/04 03:19:35;;;;;;;16.00;10.30;;;;;;;9.30;100.00;100078.84;4994048;28;20045;-51
2022/11/04 03:22:04;;;;;;;16.98;10.25;;;;;;;8.88;100.00;100021.84;4994398;28;20120;-50
2022/11/04 03:24:30;;;;;;;21.02;11.07;;;;;;;8.84;100.00;100025.47;5009293;28;20041;-49
2022/11/04 03:27:03;;;;;;;16.80;11.45;;;;;;;8.82;100.00;100040.44;4994109;28;20035;-53
2022/11/04 03:29:35;;;;;;;16.27;11.80;;;;;;;8.84;100.00;100048.28;4993070;28;20395;-49
2022/11/04 03:32:16;;;;;;;20.33;12.15;;;;;;;8.67;100.00;100029.69;4994216;28;20042;-48
2022/11/04 03:34:42;;;;;;;15.85;11.63;;;;;;;8.97;100.00;100102.00;4993891;28;20026;-55
2022/11/04 03:37:07;;;;;;;17.70;10.77;;;;;;;8.90;100.00;100106.63;4993940;28;20117;-49
2022/11/04 03:39:33;;;;;;;19.13;12.10;;;;;;;8.71;100.00;100083.75;5009212;28;20367;-53
2022/11/04 03:42:02;;;;;;;17.65;12.60;;;;;;;8.48;100.00;100055.72;4994035;28;20172;-56
2022/11/04 03:44:28;;;;;;;19.45;12.85;;;;;;;8.71;100.00;100102.97;4992654;28;20034;-56
2022/11/04 03:46:54;;;;;;;26.42;13.27;;;;;;;8.72;100.00;100122.19;4992525;28;20037;-54
2022/11/04 03:49:22;;;;;;;21.90;13.50;;;;;;;8.66;100.00;100111.91;4993533;28;20117;-50
2022/11/04 03:51:49;;;;;;;21.95;13.30;;;;;;;8.63;100.00;100112.03;5008920;28;20046;-53
2022/11/04 03:54:15;;;;;;;23.25;13.43;;;;;;;8.58;100.00;100113.97;4992322;28;20429;-51
2022/11/04 03:56:58;;;;;;;22.63;13.50;;;;;;;8.56;100.00;100123.63;4992214;28;20056;-54
2022/11/04 03:59:36;;;;;;;22.23;13.57;;;;;;;8.52;100.00;100124.69;4994230;28;20121;-51
2022/11/04 04:02:15;;;;;;;22.05;12.80;;;;;;;8.51;100.00;100136.06;4993698;28;20022;-49
2022/11/04 04:04:52;;;;;;;22.98;13.13;;;;;;;8.22;100.00;100087.22;5008981;28;20030;-54
2022/11/04 04:07:21;;;;;;;22.77;14.05;;;;;;;8.41;100.00;100127.66;5008797;28;20034;-52
2022/11/04 04:09:57;;;;;;;18.17;13.80;;;;;;;8.39;100.00;100138.22;5008879;28;20030;-54
2022/11/04 04:12:42;;;;;;;22.10;14.48;;;;;;;8.44;100.00;100157.25;5008553;28;20034;-51
2022/11/04 04:15:18;;;;;;;24.60;14.35;;;;;;;8.05;100.00;100079.09;4993016;28;20050;-50
2022/11/04 04:17:54;;;;;;;21.95;14.30;;;;;;;8.37;100.00;100150.53;4992299;28;20038;-52
2022/11/04 04:20:22;;;;;;;29.90;16.23;;;;;;;8.36;100.00;100147.94;4991981;28;20085;-49
2022/11/04 04:28:44;;;;;;;28.83;16.30;;;;;;;7.99;100.00;100108.13;5006164;28;20173;-54
2022/11/04 04:31:11;;;;;;;28.25;17.55;;;;;;;8.15;100.00;100154.72;4993213;28;20054;-58
2022/11/04 04:33:37;;;;;;;36.45;19.58;;;;;;;8.10;100.00;100153.16;4993280;28;20030;-50
2022/11/04 04:36:04;;;;;;;35.70;19.92;;;;;;;7.65;100.00;100100.50;4993345;28;20533;-53
2022/11/04 04:47:06;;;;;;;;;;;;;;;7.86;100.00;100171.41;4973076;28;20131;-51
2022/11/04 04:49:33;;;;;;;31.00;19.35;;;;;;;7.45;100.00;100115.97;4972126;28;20010;-50
2022/11/04 04:52:00;;;;;;;36.47;19.60;;;;;;;7.39;100.00;100111.78;4973392;28;20039;-55
2022/11/04 04:54:25;;;;;;;36.38;20.02;;;;;;;7.40;100.00;100137.09;4972274;28;20039;-52
2022/11/04 04:56:50;;;;;;;36.45;19.45;;;;;;;7.73;100.00;100204.16;4977272;28;20457;-54
2022/11/04 04:59:16;;;;;;;41.95;21.15;;;;;;;7.61;100.00;100186.19;4992802;28;20042;-54
2022/11/04 05:01:41;;;;;;;41.50;21.67;;;;;;;7.26;100.00;100131.41;5007965;28;20061;-57
2022/11/04 05:04:06;;;;;;;36.13;20.60;;;;;;;7.64;100.00;100200.94;4992864;28;20042;-56
2022/11/04 05:06:31;;;;;;;43.42;21.23;;;;;;;7.29;100.00;100147.03;4992688;28;20038;-52
2022/11/04 05:08:57;;;;;;;45.38;20.92;;;;;;;7.62;100.00;100207.97;4994628;28;20042;-51
2022/11/04 05:11:22;;;;;;;38.50;22.27;;;;;;;7.24;100.00;100149.75;4996593;28;20502;-53
2022/11/04 05:13:47;;;;;;;43.97;21.52;;;;;;;7.63;100.00;100209.69;4996685;28;20125;-56
2022/11/04 05:16:13;;;;;;;43.53;21.88;;;;;;;7.43;100.00;100168.41;4995161;28;20069;-57
2022/11/04 05:18:38;;;;;;;44.15;22.48;;;;;;;7.75;100.00;100222.44;4995282;28;20089;-49
2022/11/04 05:21:09;;;;;;;51.58;24.40;;;;;;;7.49;100.00;100159.50;4995147;28;20485;-60
2022/11/04 05:23:34;;;;;;;46.72;24.52;;;;;;;7.96;100.00;100232.25;4996600;28;20470;-54
2022/11/04 05:26:00;;;;;;;49.08;24.63;;;;;;;7.70;100.00;100166.72;4996463;28;20084;-52
2022/11/04 05:28:25;;;;;;;53.33;25.38;;;;;;;7.85;100.00;100176.72;4996811;28;20042;-55
2022/11/04 05:30:51;;;;;;;47.53;24.60;;;;;;;7.84;100.00;100169.75;4996432;28;20402;-58
2022/11/04 05:33:16;;;;;;;52.05;25.70;;;;;;;8.36;100.00;100248.44;4996289;28;20053;-51
2022/11/04 05:35:41;;;;;;;42.58;24.85;;;;;;;8.12;100.00;100201.16;4996174;28;20097;-52
2022/11/04 05:38:07;;;;;;;46.67;25.95;;;;;;;8.49;100.00;100246.28;4996601;28;20504;-51
2022/11/04 05:40:32;;;;;;;52.60;26.17;;;;;;;8.16;100.00;100189.66;4996128;28;20550;-49
2022/11/04 05:42:58;;;;;;;42.60;24.58;;;;;;;8.53;100.00;100247.88;4996196;28;20044;-50
2022/11/04 05:45:24;;;;;;;46.60;24.40;;;;;;;8.24;100.00;100188.50;5011038;28;20056;-50
2022/11/04 05:47:56;;;;;;;44.67;24.90;;;;;;;8.24;100.00;100182.41;4996164;28;20116;-55
2022/11/04 05:50:21;;;;;;;51.40;23.55;;;;;;;8.64;100.00;100247.53;4995901;28;20041;-53
2022/11/04 05:52:47;;;;;;;39.15;22.65;;;;;;;8.61;100.00;100248.47;4995961;28;20410;-50
2022/11/04 05:55:12;;;;;;;38.67;22.00;;;;;;;8.43;100.00;100222.88;4995953;28;20347;-55
2022/11/04 05:57:37;;;;;;;43.33;23.27;;;;;;;8.17;100.00;100181.75;4995695;28;20050;-52
2022/11/04 06:00:03;;;;;;;38.85;22.65;;;;;;;8.47;100.00;100243.72;4995743;28;20562;-53
2022/11/04 06:02:29;;;;;;;39.22;21.90;;;;;;;8.38;100.00;100251.00;4994584;28;20030;-56
2022/11/04 06:04:54;;;;;;;44.35;23.15;;;;;;;8.30;100.00;100245.16;4995645;28;20038;-51
2022/11/04 06:07:19;;;;;;;39.20;21.33;;;;;;;7.83;100.00;100183.75;4996007;28;20068;-52
2022/11/04 06:09:44;;;;;;;38.80;21.38;;;;;;;8.07;100.00;100245.88;5011231;28;20088;-53
2022/11/04 06:12:16;;;;;;;45.17;22.10;;;;;;;7.63;100.00;100184.38;4995567;28;20026;-54
2022/11/04 06:14:42;;;;;;;37.40;20.77;;;;;;;7.60;100.00;100183.59;4995475;28;20539;-51
2022/11/04 06:17:16;;;;;;;41.92;21.23;;;;;;;7.89;100.00;100257.78;4994112;28;20474;-56
2022/11/04 06:19:41;;;;;;;42.85;21.73;;;;;;;7.51;100.00;100189.97;4994138;28;20039;-54
2022/11/04 06:22:09;;;;;;;38.65;22.73;;;;;;;7.52;100.00;100180.38;5010685;28;20030;-56
2022/11/04 06:24:35;;;;;;;46.50;24.92;;;;;;;7.97;100.00;100243.59;4995358;28;20045;-52
2022/11/04 06:27:00;;;;;;;47.58;25.55;;;;;;;7.66;100.00;100175.56;4995149;28;20413;-54
2022/11/04 06:29:26;;;;;;;48.03;25.33;;;;;;;8.12;100.00;100249.19;4995325;28;20052;-52
2022/11/04 06:31:51;;;;;;;43.90;23.13;;;;;;;7.77;100.00;100184.78;4995131;28;20070;-58
2022/11/04 06:34:16;;;;;;;47.35;23.75;;;;;;;8.21;100.00;100245.44;4994317;28;20121;-56
2022/11/04 06:36:42;;;;;;;38.15;22.20;;;;;;;7.87;100.00;100188.00;4993577;28;20041;-54
2022/11/04 06:39:07;;;;;;;44.55;21.75;;;;;;;8.25;100.00;100253.16;4993677;28;20162;-55
2022/11/04 06:41:32;;;;;;;39.40;21.60;;;;;;;8.12;100.00;100241.34;4993305;28;20038;-52
2022/11/04 06:43:58;;;;;;;39.08;21.30;;;;;;;8.27;100.00;100258.34;4992351;28;20038;-54
2022/11/04 06:46:37;;;;;;;37.20;19.63;;;;;;;7.85;100.00;100189.81;4994514;28;20045;-58
2022/11/04 06:49:04;;;;;;;29.85;18.45;;;;;;;8.31;100.00;100266.09;4993881;28;20459;-55
2022/11/04 06:51:30;;;;;;;35.25;18.92;;;;;;;8.33;100.00;100280.03;4994923;28;20030;-58
2022/11/04 06:53:55;;;;;;;31.35;17.75;;;;;;;7.46;100.00;100129.03;4993844;28;20465;-48
2022/11/04 06:56:20;;;;;;;32.35;15.48;;;;;;;8.36;100.00;100286.94;4993895;28;20038;-51
2022/11/04 06:58:50;;;;;;;24.95;13.63;;;;;;;8.31;100.00;100273.97;4993766;28;20054;-52
2022/11/04 07:01:17;;;;;;;29.48;14.75;;;;;;;8.34;100.00;100289.63;4994586;28;20100;-58
2022/11/04 07:03:43;;;;;;;23.90;13.45;;;;;;;8.33;100.00;100295.75;4995067;28;20058;-52
2022/11/04 07:06:09;;;;;;;25.55;13.40;;;;;;;8.31;100.00;100304.56;4994824;28;20080;-54
2022/11/04 07:08:34;;;;;;;29.33;13.88;;;;;;;8.28;100.00;100299.44;4994916;28;20037;-54
2022/11/04 07:11:00;;;;;;;27.20;13.32;;;;;;;8.22;100.00;100313.56;4994640;28;20042;-50
2022/11/04 07:13:25;;;;;;;28.63;15.20;;;;;;;8.17;100.00;100309.38;4994347;28;20073;-54
2022/11/04 07:15:51;;;;;;;25.50;14.00;;;;;;;8.17;100.00;100314.59;4994574;28;20113;-55
2022/11/04 07:18:16;;;;;;;29.00;14.55;;;;;;;8.16;100.00;100316.38;4994420;28;20386;-55
2022/11/04 07:20:41;;;;;;;25.90;14.82;;;;;;;8.22;100.00;100317.94;4994957;28;20065;-51
2022/11/04 07:23:07;;;;;;;28.48;15.05;;;;;;;8.25;100.00;100325.72;4994577;28;20050;-54
2022/11/04 07:25:32;;;;;;;32.22;15.55;;;;;;;8.25;100.00;100323.94;4994327;28;20704;-56
2022/11/04 07:27:59;;;;;;;29.67;15.93;;;;;;;8.40;100.00;100327.91;4994222;28;20042;-52
2022/11/04 07:30:24;;;;;;;26.90;16.67;;;;;;;8.56;100.00;100344.84;4994148;28;20116;-57
2022/11/04 07:32:49;;;;;;;30.75;16.23;;;;;;;8.34;100.00;100288.75;4993826;28;20038;-49
2022/11/04 07:35:15;;;;;;;32.22;16.50;;;;;;;8.87;100.00;100361.31;4988231;28;20501;-52
2022/11/04 07:37:40;;;;;;;29.98;15.73;;;;;;;8.99;100.00;100352.16;4989182;28;20518;-52
2022/11/04 07:40:06;;;;;;;34.00;16.58;;;;;;;9.10;100.00;100351.81;4993954;28;20557;-55
2022/11/04 07:42:31;;;;;;;32.05;14.65;;;;;;;9.19;100.00;100352.38;4993888;28;20065;-54
2022/11/04 07:44:56;;;;;;;27.15;14.93;;;;;;;9.24;100.00;100360.94;4993569;28;20031;-57
2022/11/04 07:47:22;;;;;;;37.20;17.35;;;;;;;9.31;100.00;100375.56;4993950;28;20034;-54
2022/11/04 07:49:47;;;;;;;31.23;15.90;;;;;;;9.08;100.00;100330.84;4992654;28;20058;-56
2022/11/04 07:52:12;;;;;;;29.35;14.70;;;;;;;9.31;100.00;100367.69;4976508;28;20085;-54
2022/11/04 07:54:38;;;;;;;27.77;16.23;;;;;;;9.38;100.00;100389.34;5008903;28;20450;-52
2022/11/04 07:57:03;;;;;;;24.42;14.02;;;;;;;9.40;100.00;100388.38;4993567;28;20054;-48
2022/11/04 07:59:28;;;;;;;24.70;14.73;;;;;;;9.28;100.00;100366.94;4993584;28;20055;-51
2022/11/04 08:01:53;;;;;;;27.42;14.73;;;;;;;9.04;100.00;100339.75;4992390;28;20030;-53
2022/11/04 08:04:19;;;;;;;23.10;14.88;;;;;;;8.99;100.00;100325.91;4992093;28;20049;-55
2022/11/04 08:06:44;;;;;;;27.85;15.48;;;;;;;9.42;100.00;100394.47;5007598;28;20474;-51
2022/11/04 08:09:09;;;;;;;26.20;14.95;;;;;;;9.44;100.00;100402.28;4992672;28;20030;-53
2022/11/04 08:11:35;;;;;;;34.67;16.02;;;;;;;9.36;100.00;100380.66;4992684;28;20038;-52
2022/11/04 08:14:02;;;;;;;28.83;15.75;;;;;;;9.49;100.00;100398.56;4992348;28;20054;-52
2022/11/04 08:16:28;;;;;;;28.00;14.93;;;;;;;9.52;100.00;100408.97;4990886;28;20042;-49
2022/11/04 08:18:53;;;;;;;27.60;15.95;;;;;;;9.20;100.00;100346.19;4992975;28;20100;-49
2022/11/04 08:21:19;;;;;;;26.20;16.30;;;;;;;9.37;100.00;100393.75;4992891;28;20038;-58
2022/11/04 08:23:46;;;;;;;25.30;15.55;;;;;;;9.27;100.00;100347.72;4992472;28;20176;-56
2022/11/04 08:26:16;;;;;;;28.13;16.25;;;;;;;9.47;100.00;100339.97;4991262;28;20177;-51
2022/11/04 08:28:41;;;;;;;26.70;15.90;;;;;;;9.97;100.00;100390.72;5007114;28;20034;-52
2022/11/04 08:31:25;;;;;;;22.70;15.00;;;;;;;10.14;100.00;100398.00;4991014;28;20026;-50
2022/11/04 08:33:52;;;;;;;22.33;12.77;;;;;;;10.27;100.00;100422.94;4992175;28;20091;-53
2022/11/04 08:36:23;;;;;;;20.15;12.35;;;;;;;10.18;100.00;100406.63;4991893;28;20065;-57
2022/11/04 08:38:49;;;;;;;17.20;12.00;;;;;;;10.14;100.00;100404.13;4991911;28;20057;-55
2022/11/04 08:41:18;;;;;;;19.08;10.88;;;;;;;10.17;100.00;100408.41;4990358;28;20034;-59
2022/11/04 08:43:43;;;;;;;19.60;11.82;;;;;;;10.17;100.00;100405.78;4990861;28;20076;-56
2022/11/04 08:46:09;;;;;;;19.75;11.48;;;;;;;10.12;100.00;100384.03;4991784;28;20081;-59
2022/11/04 08:48:36;;;;;;;17.75;11.02;;;;;;;10.55;100.00;100418.31;4991942;28;20073;-58
2022/11/04 08:51:03;;;;;;;14.18;9.88;;;;;;;10.74;100.00;100421.94;4991829;28;20030;-56
2022/11/04 08:53:29;;;;;;;17.27;10.60;;;;;;;10.96;100.00;100415.81;4991400;28;20117;-57
2022/11/04 08:55:54;;;;;;;11.35;9.35;;;;;;;11.00;100.00;100399.00;4990311;28;20185;-53
2022/11/04 08:58:21;;;;;;;13.23;7.85;;;;;;;11.10;100.00;100376.59;4990345;28;20516;-60
2022/11/04 09:00:47;;;;;;;10.50;7.07;;;;;;;11.53;100.00;100420.47;5006688;28;20041;-57
2022/11/04 09:03:12;;;;;;;8.55;6.32;;;;;;;11.60;100.00;100420.13;4990449;28;20030;-55
2022/11/04 09:05:43;;;;;;;8.30;6.35;;;;;;;11.66;100.00;100427.75;4991451;28;20385;-57
2022/11/04 09:08:09;;;;;;;;;;;;;;;11.79;100.00;100425.50;4992059;28;20042;-58
2022/11/04 09:10:35;;;;;;;7.63;5.35;;;;;;;11.57;100.00;100378.06;4991442;28;20439;-56
2022/11/04 09:13:00;;;;;;;10.80;5.35;;;;;;;11.96;100.00;100432.66;4991697;28;20041;-56
2022/11/04 09:15:26;;;;;;;8.93;5.47;;;;;;;12.06;100.00;100436.56;4991312;28;20051;-56
2022/11/04 09:17:51;;;;;;;8.65;4.63;;;;;;;12.12;100.00;100434.53;4991539;28;20035;-57
2022/11/04 09:20:16;;;;;;;5.88;2.72;;;;;;;12.15;100.00;100449.34;4990121;28;20042;-58
2022/11/04 09:22:41;;;;;;;5.25;3.20;;;;;;;12.19;100.00;100457.09;4990223;28;20031;-55
2022/11/04 09:25:07;;;;;;;8.02;3.67;;;;;;;12.19;100.00;100441.25;4991318;28;20060;-58
2022/11/04 09:27:33;;;;;;;7.93;3.60;;;;;;;12.21;100.00;100455.22;4990118;28;20048;-57
2022/11/04 09:29:58;;;;;;;4.65;3.22;;;;;;;12.24;100.00;100473.56;4991430;28;20049;-56
2022/11/04 09:32:23;;;;;;;4.35;3.03;;;;;;;12.22;100.00;100469.28;4990093;28;20066;-56
2022/11/04 09:34:48;;;;;;;4.75;3.22;;;;;;;12.21;100.00;100473.69;4991436;28;20046;-55
2022/11/04 09:37:14;;;;;;;5.20;3.08;;;;;;;11.98;100.00;100422.88;4990597;28;20030;-53
2022/11/04 09:39:40;;;;;;;3.70;3.33;;;;;;;12.10;100.00;100431.13;4991753;28;20359;-57
2022/11/04 09:42:26;;;;;;;9.20;3.58;;;;;;;12.53;100.00;100487.22;4991099;28;20041;-56
2022/11/04 09:45:03;;;;;;;7.55;4.30;;;;;;;12.78;100.00;100501.84;4990906;28;20034;-57
2022/11/04 09:47:30;;;;;;;5.75;3.42;;;;;;;12.92;100.00;100494.16;4990645;28;20038;-56
2022/11/04 09:49:59;;;;;;;5.43;3.47;;;;;;;12.69;100.00;100438.06;4991135;28;20030;-55
2022/11/04 09:52:28;;;;;;;7.47;3.55;;;;;;;13.21;100.00;100505.13;4989438;28;20126;-57
2022/11/04 09:54:57;;;;;;;6.85;2.90;;;;;;;13.36;100.00;100507.91;4992385;28;20501;-57
2022/11/04 09:57:23;;;;;;;10.90;3.88;;;;;;;13.56;100.00;100532.50;4994916;28;20038;-55
2022/11/04 09:59:48;;;;;;;4.30;3.13;;;;;;;13.30;100.00;100486.19;4995130;28;20114;-53
2022/11/04 10:02:49;;;;;;;4.70;2.78;;;;;;;13.63;100.00;100533.91;4993305;28;20437;-55
2022/11/04 10:05:30;;;;;;;7.53;2.95;;;;;;;13.58;100.00;100538.56;4994496;28;20393;-57
2022/11/04 10:08:13;;;;;;;4.87;2.47;;;;;;;13.58;100.00;100555.28;4994704;28;20149;-53
2022/11/04 10:10:56;;;;;;;6.93;3.50;;;;;;;13.40;100.00;100566.75;4994484;28;20034;-56
2022/11/04 10:13:53;;;;;;;4.95;3.60;;;;;;;13.15;100.00;100522.16;4994488;28;20037;-55
2022/11/04 10:16:28;;;;;;;5.63;2.35;;;;;;;13.30;100.00;100571.66;4992684;28;20185;-56
2022/11/04 10:19:14;;;;;;;5.95;2.42;;;;;;;13.30;100.00;100584.84;4994182;28;20034;-53
2022/11/04 10:21:57;;;;;;;3.83;2.33;;;;;;;13.38;100.00;100577.41;4994259;28;20496;-53
2022/11/04 10:24:49;;;;;;;6.85;2.40;;;;;;;13.50;100.00;100584.75;4994330;28;20526;-53
2022/11/04 10:27:24;;;;;;;4.40;2.28;;;;;;;13.31;100.00;100536.31;4992781;28;20492;-54
2022/11/04 10:29:57;;;;;;;3.17;1.95;;;;;;;13.57;100.00;100561.53;4992932;28;20030;-53
2022/11/04 10:32:31;;;;;;;3.22;2.45;;;;;;;13.86;100.00;100608.56;5009390;28;20034;-57
2022/11/04 10:35:00;;;;;;;6.30;2.08;;;;;;;13.33;100.00;100502.75;5009206;28;20030;-54
2022/11/04 10:37:26;;;;;;;5.10;2.25;;;;;;;13.73;100.00;100553.66;4992649;28;20445;-54
2022/11/04 10:39:58;;;;;;;3.35;2.05;;;;;;;13.67;100.00;100548.69;4993899;28;20042;-54
2022/11/04 10:42:23;;;;;;;4.15;2.28;;;;;;;14.00;100.00;100592.00;5008909;28;20105;-54
2022/11/04 10:44:50;;;;;;;5.47;2.20;;;;;;;14.14;100.00;100615.97;4993193;28;20121;-51
2022/11/04 10:47:47;;;;;;;5.00;2.25;;;;;;;14.01;100.00;100578.66;5009071;28;20042;-53
2022/11/04 10:50:14;;;;;;;4.35;1.50;;;;;;;14.43;100.00;100635.69;4993264;28;20129;-51
2022/11/04 10:52:40;;;;;;;4.88;1.73;;;;;;;14.29;100.00;100654.03;4993933;28;20108;-53
2022/11/04 10:55:15;;;;;;;4.93;2.00;;;;;;;14.25;100.00;100655.13;4993524;28;20149;-54
2022/11/04 10:57:40;;;;;;;5.22;1.65;;;;;;;13.98;100.00;100599.16;4992279;28;20066;-52
2022/11/04 11:00:06;;;;;;;3.97;1.90;;;;;;;14.20;100.00;100647.44;4992377;28;20042;-55
2022/11/04 11:02:47;;;;;;;3.63;1.95;;;;;;;14.04;100.00;100655.25;4993605;28;20060;-56
2022/11/04 11:05:18;;;;;;;5.50;1.83;;;;;;;13.86;100.00;100663.25;4975871;28;20113;-56
2022/11/04 11:07:45;;;;;;;3.60;1.60;;;;;;;13.33;100.00;100615.56;4992820;28;20412;-57
2022/11/04 11:10:20;;;;;;;3.30;1.27;;;;;;;13.10;100.00;100650.16;4992246;28;20104;-54
2022/11/04 11:12:54;;;;;;;2.38;1.00;;;;;;;12.28;100.00;100586.00;4993476;28;20022;-57
2022/11/04 11:15:22;;;;;;;2.10;0.90;;;;;;;12.43;100.00;100664.50;5008272;28;20038;-54
2022/11/04 11:17:47;;;;;;;2.30;1.08;;;;;;;11.97;100.00;100601.38;4993159;28;20109;-50
2022/11/04 11:20:20;;;;;;;3.83;1.60;;;;;;;11.90;100.00;100599.06;4993421;28;20121;-56
2022/11/04 11:22:47;;;;;;;4.03;1.20;;;;;;;12.18;100.00;100658.53;4993209;28;20037;-55
2022/11/04 11:25:13;;;;;;;5.75;1.45;;;;;;;12.07;100.00;100663.41;5008411;28;20049;-55
2022/11/04 11:27:39;;;;;;;3.80;1.38;;;;;;;11.68;100.00;100599.91;4992881;28;20026;-54
2022/11/04 11:30:05;;;;;;;5.38;1.52;;;;;;;11.92;100.00;100657.88;5008163;28;20030;-55
2022/11/04 11:32:32;;;;;;;3.33;1.20;;;;;;;11.83;100.00;100638.03;4991837;28;20489;-55
2022/11/04 11:35:00;;;;;;;5.57;1.13;;;;;;;11.77;100.00;100675.19;4992966;28;20042;-50
2022/11/04 11:37:29;;;;;;;2.25;0.70;;;;;;;11.38;100.00;100640.69;4992881;28;20038;-52
2022/11/04 11:39:55;;;;;;;1.50;0.68;;;;;;;11.31;100.00;100639.19;5007818;28;20034;-53
2022/11/04 11:42:21;;;;;;;2.25;0.88;;;;;;;11.58;100.00;100688.22;5008138;28;20045;-55
2022/11/04 11:44:57;;;;;;;4.13;0.60;;;;;;;11.61;100.00;100700.41;4992720;28;20170;-57
2022/11/04 11:47:26;;;;;;;6.53;2.20;;;;;;;11.58;100.00;100719.84;4992978;28;20122;-55
2022/11/04 11:50:18;;;;;;;6.65;1.90;;;;;;;11.66;100.00;100723.03;4992721;28;20419;-57
2022/11/04 11:52:46;;;;;;;;;;;;;;;11.74;100.00;100717.50;4992950;28;20457;-55
2022/11/04 11:55:24;;;;;;;1.85;0.77;;;;;;;11.45;100.00;100671.16;5008006;28;19956;-51
2022/11/04 11:57:56;;;;;;;1.45;0.73;;;;;;;11.76;100.00;100720.97;4991542;28;20092;-51